Alexander von Humboldt II — DDKK2 — position and weather

sailwx.info

Track history (hours):
 
Tides and Currents Weather Stations Pressure Air Temp Water Temp Dewpoint Dewpoint Depression Visibility Wind Speed Wind Dir Waves Ship Positions

Alexander von Humboldt II

Ship's website: https://www.alex-2.de/en/

Last reported at 2019-Dec-05 23:00 UTC. Time now 2019-Dec-06 06:30 UTC.
Position N 28°06' W 014°00'.

Length 65 m; draft 4.7 m.

Type: Sailing vessel. MMSI: 218768000.

Wind from 350 at 16 knots

Barometer 1013.0 mb
Air temperature 19.0 ° C
Visibility: greater than 10.8 NM
Dewpoint 12.7 ° C
Water temperature 20.0 ° C

Date/timePositionNaut miles runAvg speedWind from/ knotsBaromVisibWave heightAir tempDewpointWater temp
2019-Dec-05 23:00N 28°06' W 014°00'4 5.6 350 / 161013.010.8 19.012.720.0
2019-Dec-05 22:22N 28°09' W 014°02'3 0.4
2019-Dec-05 15:06N 28°09' W 013°59'0 0.2
2019-Dec-05 13:06N 28°09' W 013°59'0 1.1
2019-Dec-05 13:00N 28°09' W 013°59'3 1.1
2019-Dec-05 10:00N 28°06' W 014°00'3 2.1 300 / 201013.510.8 19.014.220.0
2019-Dec-05 08:33N 28°08' W 014°02'20 3.0
2019-Dec-05 01:45N 27°60' W 014°23'6 7.7
2019-Dec-05 01:00N 28°00' W 014°29'32 5.3
2019-Dec-04 19:01N 28°05' W 015°05'10 4.9
2019-Dec-04 17:00N 28°06' W 015°16'9 1.7
2019-Dec-04 12:00N 28°08' W 015°26'0 0.0
2019-Dec-04 09:30N 28°08' W 015°26'0 0.0
2019-Dec-04 08:27N 28°08' W 015°26'0 0.0
2019-Dec-04 06:27N 28°08' W 015°26'0 0.0
2019-Dec-04 05:30N 28°08' W 015°26'0 0.0
2019-Dec-04 04:57N 28°08' W 015°26'0 0.0
2019-Dec-04 03:57N 28°08' W 015°26'0 0.0
2019-Dec-04 03:30N 28°08' W 015°26'0 0.0
2019-Dec-04 02:30N 28°08' W 015°26'0 0.0
2019-Dec-04 02:00N 28°08' W 015°26'0 0.0
2019-Dec-04 00:30N 28°08' W 015°26'0 0.0
2019-Dec-03 23:24N 28°08' W 015°26'0 0.0
2019-Dec-03 21:30N 28°08' W 015°26'0 0.0
2019-Dec-03 20:54N 28°08' W 015°26'0 0.0
2019-Dec-03 20:24N 28°08' W 015°26'0 0.0
2019-Dec-03 20:00N 28°08' W 015°26'0 0.0
2019-Dec-03 16:57N 28°08' W 015°26'0 0.0
2019-Dec-03 14:57N 28°08' W 015°26'0 0.0
2019-Dec-03 13:30N 28°08' W 015°26'0 0.0
2019-Dec-03 11:30N 28°08' W 015°26'0 0.0
2019-Dec-03 09:30N 28°08' W 015°26'0 0.0
2019-Dec-03 09:00N 28°08' W 015°26'0 0.0
2019-Dec-03 08:30N 28°08' W 015°26'0 0.0
2019-Dec-03 07:30N 28°08' W 015°26'0 0.0
2019-Dec-03 06:21N 28°08' W 015°26'0 0.0
2019-Dec-03 05:24N 28°08' W 015°26'0 0.0
2019-Dec-03 04:27N 28°08' W 015°26'0 0.0
2019-Dec-03 04:00N 28°08' W 015°26'0 0.0
2019-Dec-03 03:30N 28°08' W 015°26'0 0.0
2019-Dec-03 00:27N 28°08' W 015°26'0 0.0
2019-Dec-02 23:00N 28°08' W 015°26'0 0.0
2019-Dec-02 22:30N 28°08' W 015°26'0 0.0
2019-Dec-02 21:30N 28°08' W 015°26'0 0.0
2019-Dec-02 19:30N 28°08' W 015°26'0 0.0
2019-Dec-02 19:00N 28°08' W 015°26'0 0.0
2019-Dec-02 18:30N 28°08' W 015°26'0 0.0
2019-Dec-02 17:30N 28°08' W 015°26'0 0.0
2019-Dec-02 16:48N 28°08' W 015°26'0 0.0
2019-Dec-02 16:00N 28°08' W 015°26'0 0.0
2019-Dec-02 12:57N 28°08' W 015°26'0 0.0
2019-Dec-02 11:27N 28°08' W 015°26'0 0.0
2019-Dec-02 08:30N 28°08' W 015°26'0 0.0
2019-Dec-02 07:30N 28°08' W 015°26'0 0.0
2019-Dec-02 07:00N 28°08' W 015°26'0 0.0
2019-Dec-02 06:00N 28°08' W 015°26'0 0.0
2019-Dec-02 04:30N 28°08' W 015°26'0 0.0
2019-Dec-02 04:00N 28°08' W 015°26'0 0.0
2019-Dec-02 03:21N 28°08' W 015°26'0 0.0
2019-Dec-02 01:30N 28°08' W 015°26'0 0.0
2019-Dec-01 23:30N 28°08' W 015°26'0 0.0
2019-Dec-01 20:00N 28°08' W 015°26'0 0.0
2019-Dec-01 18:30N 28°08' W 015°26'4 1.9
2019-Dec-01 16:31N 28°09' W 015°21'2 3.9
2019-Dec-01 16:00N 28°11' W 015°20'9 4.6
2019-Dec-01 14:00N 28°19' W 015°15'2 1.6
2019-Dec-01 13:00N 28°19' W 015°13'3 3.1
2019-Dec-01 12:01N 28°17' W 015°11'1 2.5
2019-Dec-01 11:31N 28°16' W 015°10'4 1.2
2019-Dec-01 08:31N 28°20' W 015°09'5 1.8
2019-Dec-01 06:00N 28°24' W 015°12'714.8 040 / 131021.010.8 21.516.921.5
2019-Dec-01 05:31N 28°29' W 015°18'2 4.5
2019-Dec-01 05:00N 28°31' W 015°19'4 3.5
2019-Dec-01 04:00N 28°34' W 015°21'2 3.5
2019-Dec-01 03:30N 28°35' W 015°23'4 3.5
2019-Dec-01 02:30N 28°38' W 015°25'10 4.1
2019-Dec-01 00:00N 28°47' W 015°31'3 3.4
2019-Nov-30 23:00N 28°44' W 015°28'7 4.4
2019-Nov-30 21:31N 28°39' W 015°23'4 4.2
2019-Nov-30 20:31N 28°36' W 015°20'6 3.9
2019-Nov-30 18:59N 28°32' W 015°16'1 3.0
2019-Nov-30 18:31N 28°31' W 015°14'29 5.8
2019-Nov-30 13:30N 28°53' W 015°36'1 0.7
2019-Nov-30 12:30N 28°53' W 015°37'7 1.5
2019-Nov-30 08:00N 29°00' W 015°36'12 4.9 060 / 171020.010.8 22.018.320.5
2019-Nov-30 05:31N 29°11' W 015°42'2 4.4
2019-Nov-30 05:01N 29°13' W 015°43'176.3
2019-Nov-30 05:00N 29°12' W 015°42'7 4.8 300 / 201019.3 5.4 21.518.521.5
2019-Nov-30 03:31N 29°18' W 015°46'3 6.4
2019-Nov-30 03:00N 29°18' W 015°42'612.9 050 / 291020.010.8 20.015.3
2019-Nov-30 02:30N 29°22' W 015°48'5 3.7
2019-Nov-30 01:00N 29°27' W 015°50'7 3.6
2019-Nov-29 23:00N 29°33' W 015°54'6 3.9
2019-Nov-29 21:30N 29°39' W 015°57'2 4.6
2019-Nov-29 21:00N 29°41' W 015°58'2 4.4
2019-Nov-29 20:30N 29°43' W 015°59'5 4.5
2019-Nov-29 19:30N 29°47' W 016°02'2 1.3
2019-Nov-29 17:56N 29°49' W 016°02'3 6.6
2019-Nov-29 17:27N 29°46' W 016°00'8 7.2
2019-Nov-29 16:16N 29°39' W 015°55'2 7.6
2019-Nov-29 16:01N 29°37' W 015°54'4 7.8
2019-Nov-29 15:30N 29°34' W 015°51'10 6.7
2019-Nov-29 13:59N 29°25' W 015°45'13 6.5
2019-Nov-29 12:01N 29°14' W 015°38'3 6.7
2019-Nov-29 11:31N 29°11' W 015°37'3 1.3
2019-Nov-29 09:30N 29°08' W 015°35'9 4.5
2019-Nov-29 07:30N 29°17' W 015°40'3 5.7
2019-Nov-29 07:00N 29°19' W 015°40'3 6.1
2019-Nov-29 06:30N 29°22' W 015°41'7 4.4
2019-Nov-29 05:00N 29°29' W 015°43'5308.8
2019-Nov-29 05:00N 29°24' W 015°42'714.2 030 / 141019.010.8 21.0 22.0
2019-Nov-29 04:30N 29°31' W 015°44'4 3.8
2019-Nov-29 03:30N 29°34' W 015°45'5 9.7
2019-Nov-29 03:00N 29°30' W 015°42'912.8 070 / 171018.010.8 21.016.421.5
2019-Nov-29 02:19N 29°38' W 015°46'2 3.7
2019-Nov-29 01:53N 29°39' W 015°47'6 4.1
2019-Nov-29 00:31N 29°44' W 015°51'3 0.7
2019-Nov-28 19:54N 29°41' W 015°50'2 3.9
2019-Nov-28 19:30N 29°39' W 015°49'3 3.4
2019-Nov-28 18:38N 29°37' W 015°48'4 5.6
2019-Nov-28 18:00N 29°40' W 015°49'10 6.2
2019-Nov-28 16:22N 29°50' W 015°51'1611.8
2019-Nov-28 15:00N 29°36' W 015°42'3 4.6 070 / 161017.010.8 22.012.121.0
2019-Nov-28 14:18N 29°39' W 015°44'3 6.1
2019-Nov-28 13:52N 29°36' W 015°43'2 5.2
2019-Nov-28 13:30N 29°35' W 015°41'2 0.2
2019-Nov-28 07:01N 29°35' W 015°40'2 3.6
2019-Nov-28 06:25N 29°34' W 015°41'15 4.3
2019-Nov-28 03:00N 29°24' W 015°54'12 4.0 060 / 81018.010.8 21.016.422.0
2019-Nov-28 00:00N 29°18' W 016°06'28 1.6 060 / 151019.110.8 21.514.521.5
2019-Nov-27 07:00N 29°00' W 016°30'5 5.2 090 / 101018.010.8 20.016.121.0
2019-Nov-27 06:00N 29°00' W 016°24'0 0.0 110 / 41017.010.8 20.515.821.5
2019-Nov-27 05:00N 29°00' W 016°24'12 6.0 300 / 71018.010.8 21.515.221.5
2019-Nov-27 03:00N 28°54' W 016°12'12 3.0 020 / 81018.110.8 21.014.721.0
2019-Nov-26 23:00N 28°48' W 016°00'13 4.3 030 / 121019.010.8 22.015.822.0
2019-Nov-26 20:00N 28°42' W 015°47'2 4.5
2019-Nov-26 19:30N 28°41' W 015°45'2 4.7
2019-Nov-26 19:00N 28°40' W 015°42'21 4.6
2019-Nov-26 14:30N 28°27' W 015°24'9 6.1
2019-Nov-26 13:00N 28°18' W 015°24'9 3.6
2019-Nov-26 10:30N 28°09' W 015°26'0 0.0
2019-Nov-26 09:00N 28°09' W 015°26'0 0.0
2019-Nov-26 07:30N 28°09' W 015°26'0 0.0
2019-Nov-26 07:00N 28°09' W 015°26'0 0.0
2019-Nov-26 06:30N 28°09' W 015°26'0 0.0
2019-Nov-26 05:30N 28°09' W 015°26'0 0.0
2019-Nov-26 03:18N 28°09' W 015°26'0 0.0
2019-Nov-25 23:54N 28°09' W 015°26'  
Track history (hours):
 
Tides and Currents Weather Stations Pressure Air Temp Water Temp Dewpoint Dewpoint Depression Visibility Wind Speed Wind Dir Waves Ship Positions

Alexander von Humboldt II

Ship's website: https://www.alex-2.de/en/

Last reported at 2019-Dec-05 23:00 UTC. Time now 2019-Dec-06 06:30 UTC.
Position N 28°06' W 014°00'.

Length 65 m; draft 4.7 m.

Type: Sailing vessel. MMSI: 218768000.

Wind from 350 at 16 knots

Barometer 1013.0 mb
Air temperature 19.0 ° C
Visibility: greater than 10.8 NM
Dewpoint 12.7 ° C
Water temperature 20.0 ° C

Date/timePositionNaut miles runAvg speedWind from/ knotsBaromVisibWave heightAir tempDewpointWater temp
2019-Dec-05 23:00N 28°06' W 014°00'4 5.6 350 / 161013.010.8 19.012.720.0
2019-Dec-05 22:22N 28°09' W 014°02'3 0.4
2019-Dec-05 15:06N 28°09' W 013°59'0 0.2
2019-Dec-05 13:06N 28°09' W 013°59'0 1.1
2019-Dec-05 13:00N 28°09' W 013°59'3 1.1
2019-Dec-05 10:00N 28°06' W 014°00'3 2.1 300 / 201013.510.8 19.014.220.0
2019-Dec-05 08:33N 28°08' W 014°02'20 3.0
2019-Dec-05 01:45N 27°60' W 014°23'6 7.7
2019-Dec-05 01:00N 28°00' W 014°29'32 5.3
2019-Dec-04 19:01N 28°05' W 015°05'10 4.9
2019-Dec-04 17:00N 28°06' W 015°16'9 1.7
2019-Dec-04 12:00N 28°08' W 015°26'0 0.0
2019-Dec-04 09:30N 28°08' W 015°26'0 0.0
2019-Dec-04 08:27N 28°08' W 015°26'0 0.0
2019-Dec-04 06:27N 28°08' W 015°26'0 0.0
2019-Dec-04 05:30N 28°08' W 015°26'0 0.0
2019-Dec-04 04:57N 28°08' W 015°26'0 0.0
2019-Dec-04 03:57N 28°08' W 015°26'0 0.0
2019-Dec-04 03:30N 28°08' W 015°26'0 0.0
2019-Dec-04 02:30N 28°08' W 015°26'0 0.0
2019-Dec-04 02:00N 28°08' W 015°26'0 0.0
2019-Dec-04 00:30N 28°08' W 015°26'0 0.0
2019-Dec-03 23:24N 28°08' W 015°26'0 0.0
2019-Dec-03 21:30N 28°08' W 015°26'0 0.0
2019-Dec-03 20:54N 28°08' W 015°26'0 0.0
2019-Dec-03 20:24N 28°08' W 015°26'0 0.0
2019-Dec-03 20:00N 28°08' W 015°26'0 0.0
2019-Dec-03 16:57N 28°08' W 015°26'0 0.0
2019-Dec-03 14:57N 28°08' W 015°26'0 0.0
2019-Dec-03 13:30N 28°08' W 015°26'0 0.0
2019-Dec-03 11:30N 28°08' W 015°26'0 0.0
2019-Dec-03 09:30N 28°08' W 015°26'0 0.0
2019-Dec-03 09:00N 28°08' W 015°26'0 0.0
2019-Dec-03 08:30N 28°08' W 015°26'0 0.0
2019-Dec-03 07:30N 28°08' W 015°26'0 0.0
2019-Dec-03 06:21N 28°08' W 015°26'0 0.0
2019-Dec-03 05:24N 28°08' W 015°26'0 0.0
2019-Dec-03 04:27N 28°08' W 015°26'0 0.0
2019-Dec-03 04:00N 28°08' W 015°26'0 0.0
2019-Dec-03 03:30N 28°08' W 015°26'0 0.0
2019-Dec-03 00:27N 28°08' W 015°26'0 0.0
2019-Dec-02 23:00N 28°08' W 015°26'0 0.0
2019-Dec-02 22:30N 28°08' W 015°26'0 0.0
2019-Dec-02 21:30N 28°08' W 015°26'0 0.0
2019-Dec-02 19:30N 28°08' W 015°26'0 0.0
2019-Dec-02 19:00N 28°08' W 015°26'0 0.0
2019-Dec-02 18:30N 28°08' W 015°26'0 0.0
2019-Dec-02 17:30N 28°08' W 015°26'0 0.0
2019-Dec-02 16:48N 28°08' W 015°26'0 0.0
2019-Dec-02 16:00N 28°08' W 015°26'0 0.0
2019-Dec-02 12:57N 28°08' W 015°26'0 0.0
2019-Dec-02 11:27N 28°08' W 015°26'0 0.0
2019-Dec-02 08:30N 28°08' W 015°26'0 0.0
2019-Dec-02 07:30N 28°08' W 015°26'0 0.0
2019-Dec-02 07:00N 28°08' W 015°26'0 0.0
2019-Dec-02 06:00N 28°08' W 015°26'0 0.0
2019-Dec-02 04:30N 28°08' W 015°26'0 0.0
2019-Dec-02 04:00N 28°08' W 015°26'0 0.0
2019-Dec-02 03:21N 28°08' W 015°26'0 0.0
2019-Dec-02 01:30N 28°08' W 015°26'0 0.0
2019-Dec-01 23:30N 28°08' W 015°26'0 0.0
2019-Dec-01 20:00N 28°08' W 015°26'0 0.0
2019-Dec-01 18:30N 28°08' W 015°26'4 1.9
2019-Dec-01 16:31N 28°09' W 015°21'2 3.9
2019-Dec-01 16:00N 28°11' W 015°20'9 4.6
2019-Dec-01 14:00N 28°19' W 015°15'2 1.6
2019-Dec-01 13:00N 28°19' W 015°13'3 3.1
2019-Dec-01 12:01N 28°17' W 015°11'1 2.5
2019-Dec-01 11:31N 28°16' W 015°10'4 1.2
2019-Dec-01 08:31N 28°20' W 015°09'5 1.8
2019-Dec-01 06:00N 28°24' W 015°12'714.8 040 / 131021.010.8 21.516.921.5
2019-Dec-01 05:31N 28°29' W 015°18'2 4.5
2019-Dec-01 05:00N 28°31' W 015°19'4 3.5
2019-Dec-01 04:00N 28°34' W 015°21'2 3.5
2019-Dec-01 03:30N 28°35' W 015°23'4 3.5
2019-Dec-01 02:30N 28°38' W 015°25'10 4.1
2019-Dec-01 00:00N 28°47' W 015°31'3 3.4
2019-Nov-30 23:00N 28°44' W 015°28'7 4.4
2019-Nov-30 21:31N 28°39' W 015°23'4 4.2
2019-Nov-30 20:31N 28°36' W 015°20'6 3.9
2019-Nov-30 18:59N 28°32' W 015°16'1 3.0
2019-Nov-30 18:31N 28°31' W 015°14'29 5.8
2019-Nov-30 13:30N 28°53' W 015°36'1 0.7
2019-Nov-30 12:30N 28°53' W 015°37'7 1.5
2019-Nov-30 08:00N 29°00' W 015°36'12 4.9 060 / 171020.010.8 22.018.320.5
2019-Nov-30 05:31N 29°11' W 015°42'2 4.4
2019-Nov-30 05:01N 29°13' W 015°43'176.3
2019-Nov-30 05:00N 29°12' W 015°42'7 4.8 300 / 201019.3 5.4 21.518.521.5
2019-Nov-30 03:31N 29°18' W 015°46'3 6.4
2019-Nov-30 03:00N 29°18' W 015°42'612.9 050 / 291020.010.8 20.015.3
2019-Nov-30 02:30N 29°22' W 015°48'5 3.7
2019-Nov-30 01:00N 29°27' W 015°50'7 3.6
2019-Nov-29 23:00N 29°33' W 015°54'6 3.9
2019-Nov-29 21:30N 29°39' W 015°57'2 4.6
2019-Nov-29 21:00N 29°41' W 015°58'2 4.4
2019-Nov-29 20:30N 29°43' W 015°59'5 4.5
2019-Nov-29 19:30N 29°47' W 016°02'2 1.3
2019-Nov-29 17:56N 29°49' W 016°02'3 6.6
2019-Nov-29 17:27N 29°46' W 016°00'8 7.2
2019-Nov-29 16:16N 29°39' W 015°55'2 7.6
2019-Nov-29 16:01N 29°37' W 015°54'4 7.8
2019-Nov-29 15:30N 29°34' W 015°51'10 6.7
2019-Nov-29 13:59N 29°25' W 015°45'13 6.5
2019-Nov-29 12:01N 29°14' W 015°38'3 6.7
2019-Nov-29 11:31N 29°11' W 015°37'3 1.3
2019-Nov-29 09:30N 29°08' W 015°35'9 4.5
2019-Nov-29 07:30N 29°17' W 015°40'3 5.7
2019-Nov-29 07:00N 29°19' W 015°40'3 6.1
2019-Nov-29 06:30N 29°22' W 015°41'7 4.4
2019-Nov-29 05:00N 29°29' W 015°43'5308.8
2019-Nov-29 05:00N 29°24' W 015°42'714.2 030 / 141019.010.8 21.0 22.0
2019-Nov-29 04:30N 29°31' W 015°44'4 3.8
2019-Nov-29 03:30N 29°34' W 015°45'5 9.7
2019-Nov-29 03:00N 29°30' W 015°42'912.8 070 / 171018.010.8 21.016.421.5
2019-Nov-29 02:19N 29°38' W 015°46'2 3.7
2019-Nov-29 01:53N 29°39' W 015°47'6 4.1
2019-Nov-29 00:31N 29°44' W 015°51'3 0.7
2019-Nov-28 19:54N 29°41' W 015°50'2 3.9
2019-Nov-28 19:30N 29°39' W 015°49'3 3.4
2019-Nov-28 18:38N 29°37' W 015°48'4 5.6
2019-Nov-28 18:00N 29°40' W 015°49'10 6.2
2019-Nov-28 16:22N 29°50' W 015°51'1611.8
2019-Nov-28 15:00N 29°36' W 015°42'3 4.6 070 / 161017.010.8 22.012.121.0
2019-Nov-28 14:18N 29°39' W 015°44'3 6.1
2019-Nov-28 13:52N 29°36' W 015°43'2 5.2
2019-Nov-28 13:30N 29°35' W 015°41'2 0.2
2019-Nov-28 07:01N 29°35' W 015°40'2 3.6
2019-Nov-28 06:25N 29°34' W 015°41'15 4.3
2019-Nov-28 03:00N 29°24' W 015°54'12 4.0 060 / 81018.010.8 21.016.422.0
2019-Nov-28 00:00N 29°18' W 016°06'28 1.6 060 / 151019.110.8 21.514.521.5
2019-Nov-27 07:00N 29°00' W 016°30'5 5.2 090 / 101018.010.8 20.016.121.0
2019-Nov-27 06:00N 29°00' W 016°24'0 0.0 110 / 41017.010.8 20.515.821.5
2019-Nov-27 05:00N 29°00' W 016°24'12 6.0 300 / 71018.010.8 21.515.221.5
2019-Nov-27 03:00N 28°54' W 016°12'12 3.0 020 / 81018.110.8 21.014.721.0
2019-Nov-26 23:00N 28°48' W 016°00'13 4.3 030 / 121019.010.8 22.015.822.0
2019-Nov-26 20:00N 28°42' W 015°47'2 4.5
2019-Nov-26 19:30N 28°41' W 015°45'2 4.7
2019-Nov-26 19:00N 28°40' W 015°42'21 4.6
2019-Nov-26 14:30N 28°27' W 015°24'9 6.1
2019-Nov-26 13:00N 28°18' W 015°24'9 3.6
2019-Nov-26 10:30N 28°09' W 015°26'0 0.0
2019-Nov-26 09:00N 28°09' W 015°26'0 0.0
2019-Nov-26 07:30N 28°09' W 015°26'0 0.0
2019-Nov-26 07:00N 28°09' W 015°26'0 0.0
2019-Nov-26 06:30N 28°09' W 015°26'0 0.0
2019-Nov-26 05:30N 28°09' W 015°26'0 0.0
2019-Nov-26 03:18N 28°09' W 015°26'0 0.0
2019-Nov-25 23:54N 28°09' W 015°26'  

Dump ship's entire track history